sensor_id;sensor_type;location;lat;lon;timestamp;pressure;altitude;pressure_sealevel;temperature;humidity
46430;BME280;32131;53.454;-6.180;2023-03-16T00:00:36;99794.59;;;8.34;100.00
46430;BME280;32131;53.454;-6.180;2023-03-16T00:03:04;99797.19;;;8.36;100.00
46430;BME280;32131;53.454;-6.180;2023-03-16T00:05:32;99801.47;;;8.37;100.00
46430;BME280;32131;53.454;-6.180;2023-03-16T00:08:00;99792.91;;;8.37;100.00
46430;BME280;32131;53.454;-6.180;2023-03-16T00:10:28;99796.31;;;8.37;100.00
46430;BME280;32131;53.454;-6.180;2023-03-16T00:12:56;99788.63;;;8.37;100.00
46430;BME280;32131;53.454;-6.180;2023-03-16T00:15:24;99783.47;;;8.37;100.00
46430;BME280;32131;53.454;-6.180;2023-03-16T00:17:54;99786.91;;;8.38;100.00
46430;BME280;32131;53.454;-6.180;2023-03-16T00:20:24;99774.91;;;8.37;100.00
46430;BME280;32131;53.454;-6.180;2023-03-16T00:22:53;99762.88;;;8.34;100.00
46430;BME280;32131;53.454;-6.180;2023-03-16T00:25:22;99768.91;;;8.38;100.00
46430;BME280;32131;53.454;-6.180;2023-03-16T00:27:50;99762.03;;;8.38;100.00
46430;BME280;32131;53.454;-6.180;2023-03-16T00:30:18;99774.06;;;8.39;100.00
46430;BME280;32131;53.454;-6.180;2023-03-16T00:32:47;99777.47;;;8.40;100.00
46430;BME280;32131;53.454;-6.180;2023-03-16T00:35:18;99774.06;;;8.41;100.00
46430;BME280;32131;53.454;-6.180;2023-03-16T00:37:47;99775.78;;;8.42;100.00
46430;BME280;32131;53.454;-6.180;2023-03-16T00:40:15;99765.50;;;8.40;100.00
46430;BME280;32131;53.454;-6.180;2023-03-16T00:42:44;99759.50;;;8.41;100.00
46430;BME280;32131;53.454;-6.180;2023-03-16T00:45:12;99761.25;;;8.42;100.00
46430;BME280;32131;53.454;-6.180;2023-03-16T00:47:40;99756.09;;;8.42;100.00
46430;BME280;32131;53.454;-6.180;2023-03-16T00:50:09;99762.97;;;8.43;100.00
46430;BME280;32131;53.454;-6.180;2023-03-16T00:52:39;99761.25;;;8.42;100.00
46430;BME280;32131;53.454;-6.180;2023-03-16T00:55:08;99758.66;;;8.44;100.00
46430;BME280;32131;53.454;-6.180;2023-03-16T00:57:36;99753.53;;;8.45;100.00
46430;BME280;32131;53.454;-6.180;2023-03-16T01:00:06;99761.31;;;8.48;100.00
46430;BME280;32131;53.454;-6.180;2023-03-16T01:02:38;99757.91;;;8.51;100.00
46430;BME280;32131;53.454;-6.180;2023-03-16T01:05:07;99753.63;;;8.53;100.00
46430;BME280;32131;53.454;-6.180;2023-03-16T01:07:40;99752.81;;;8.59;100.00
46430;BME280;32131;53.454;-6.180;2023-03-16T01:10:11;99737.38;;;8.62;100.00
46430;BME280;32131;53.454;-6.180;2023-03-16T01:12:39;99735.66;;;8.61;100.00
46430;BME280;32131;53.454;-6.180;2023-03-16T01:15:09;99724.53;;;8.59;100.00
46430;BME280;32131;53.454;-6.180;2023-03-16T01:17:37;99731.41;;;8.61;100.00
46430;BME280;32131;53.454;-6.180;2023-03-16T01:20:06;99715.97;;;8.60;100.00
46430;BME280;32131;53.454;-6.180;2023-03-16T01:22:37;99718.56;;;8.64;100.00
46430;BME280;32131;53.454;-6.180;2023-03-16T01:25:09;99715.16;;;8.70;100.00
46430;BME280;32131;53.454;-6.180;2023-03-16T01:27:38;99715.16;;;8.70;100.00
46430;BME280;32131;53.454;-6.180;2023-03-16T01:30:07;99717.75;;;8.75;100.00
46430;BME280;32131;53.454;-6.180;2023-03-16T01:32:38;99704.06;;;8.79;100.00
46430;BME280;32131;53.454;-6.180;2023-03-16T01:35:07;99706.66;;;8.87;100.00
46430;BME280;32131;53.454;-6.180;2023-03-16T01:37:36;99701.59;;;9.01;100.00
46430;BME280;32131;53.454;-6.180;2023-03-16T01:40:07;99694.75;;;9.01;100.00
46430;BME280;32131;53.454;-6.180;2023-03-16T01:42:47;99699.06;;;9.10;100.00
46430;BME280;32131;53.454;-6.180;2023-03-16T01:48:23;99689.66;;;9.20;100.00
46430;BME280;32131;53.454;-6.180;2023-03-16T01:50:53;99675.09;;;9.22;100.00
46430;BME280;32131;53.454;-6.180;2023-03-16T01:53:23;99685.41;;;9.25;100.00
46430;BME280;32131;53.454;-6.180;2023-03-16T01:55:53;99677.69;;;9.28;100.00
46430;BME280;32131;53.454;-6.180;2023-03-16T01:58:22;99676.84;;;9.27;100.00
46430;BME280;32131;53.454;-6.180;2023-03-16T02:00:50;99669.09;;;9.23;100.00
46430;BME280;32131;53.454;-6.180;2023-03-16T02:03:18;99670.84;;;9.27;100.00
46430;BME280;32131;53.454;-6.180;2023-03-16T02:05:54;99675.13;;;9.30;100.00
46430;BME280;32131;53.454;-6.180;2023-03-16T02:08:26;99670.81;;;9.30;100.00
46430;BME280;32131;53.454;-6.180;2023-03-16T02:10:56;99663.13;;;9.32;100.00
46430;BME280;32131;53.454;-6.180;2023-03-16T02:13:25;99662.25;;;9.31;100.00
46430;BME280;32131;53.454;-6.180;2023-03-16T02:15:55;99663.09;;;9.30;100.00
46430;BME280;32131;53.454;-6.180;2023-03-16T02:18:23;99657.97;;;9.33;100.00
46430;BME280;32131;53.454;-6.180;2023-03-16T02:20:56;99657.13;;;9.34;100.00
46430;BME280;32131;53.454;-6.180;2023-03-16T02:23:28;99660.53;;;9.35;100.00
46430;BME280;32131;53.454;-6.180;2023-03-16T02:26:02;99652.81;;;9.33;100.00
46430;BME280;32131;53.454;-6.180;2023-03-16T02:28:44;99651.09;;;9.34;100.00
46430;BME280;32131;53.454;-6.180;2023-03-16T02:31:18;99641.66;;;9.37;100.00
46430;BME280;32131;53.454;-6.180;2023-03-16T02:33:48;99634.81;;;9.42;100.00
46430;BME280;32131;53.454;-6.180;2023-03-16T02:36:19;99640.84;;;9.46;100.00
46430;BME280;32131;53.454;-6.180;2023-03-16T02:38:47;99634.81;;;9.46;100.00
46430;BME280;32131;53.454;-6.180;2023-03-16T02:41:18;99629.69;;;9.52;100.00
46430;BME280;32131;53.454;-6.180;2023-03-16T02:43:49;99636.53;;;9.56;100.00
46430;BME280;32131;53.454;-6.180;2023-03-16T02:46:21;99628.81;;;9.57;100.00
46430;BME280;32131;53.454;-6.180;2023-03-16T02:48:56;99627.09;;;9.58;100.00
46430;BME280;32131;53.454;-6.180;2023-03-16T02:51:29;99623.66;;;9.56;100.00
46430;BME280;32131;53.454;-6.180;2023-03-16T02:53:58;99629.69;;;9.58;100.00
46430;BME280;32131;53.454;-6.180;2023-03-16T02:56:26;99620.22;;;9.54;100.00
46430;BME280;32131;53.454;-6.180;2023-03-16T02:58:54;99612.50;;;9.51;100.00
46430;BME280;32131;53.454;-6.180;2023-03-16T03:01:25;99619.38;;;9.52;100.00
46430;BME280;32131;53.454;-6.180;2023-03-16T03:03:53;99621.09;;;9.56;100.00
46430;BME280;32131;53.454;-6.180;2023-03-16T03:06:21;99622.81;;;9.58;100.00
46430;BME280;32131;53.454;-6.180;2023-03-16T03:08:51;99620.22;;;9.57;100.00
46430;BME280;32131;53.454;-6.180;2023-03-16T03:11:19;99613.34;;;9.51;100.00
46430;BME280;32131;53.454;-6.180;2023-03-16T03:13:48;99615.94;;;9.50;100.00
46430;BME280;32131;53.454;-6.180;2023-03-16T03:16:16;99606.47;;;9.47;100.00
46430;BME280;32131;53.454;-6.180;2023-03-16T03:18:46;99605.59;;;9.47;100.00
46430;BME280;32131;53.454;-6.180;2023-03-16T03:21:14;99601.31;;;9.44;100.00
46430;BME280;32131;53.454;-6.180;2023-03-16T03:23:43;99603.91;;;9.42;100.00
46430;BME280;32131;53.454;-6.180;2023-03-16T03:26:13;99599.59;;;9.40;100.00
46430;BME280;32131;53.454;-6.180;2023-03-16T03:28:42;99598.72;;;9.39;100.00
46430;BME280;32131;53.454;-6.180;2023-03-16T03:31:12;99589.28;;;9.38;100.00
46430;BME280;32131;53.454;-6.180;2023-03-16T03:33:41;99590.16;;;9.40;100.00
46430;BME280;32131;53.454;-6.180;2023-03-16T03:36:11;99574.69;;;9.43;100.00
46430;BME280;32131;53.454;-6.180;2023-03-16T03:38:39;99572.97;;;9.46;100.00
46430;BME280;32131;53.454;-6.180;2023-03-16T03:41:07;99578.13;;;9.49;100.00
46430;BME280;32131;53.454;-6.180;2023-03-16T03:43:35;99578.16;;;9.56;100.00
46430;BME280;32131;53.454;-6.180;2023-03-16T03:46:04;99576.41;;;9.57;100.00
46430;BME280;32131;53.454;-6.180;2023-03-16T03:48:32;99575.56;;;9.52;100.00
46430;BME280;32131;53.454;-6.180;2023-03-16T03:51:01;99570.41;;;9.42;100.00
46430;BME280;32131;53.454;-6.180;2023-03-16T03:53:31;99575.53;;;9.36;100.00
46430;BME280;32131;53.454;-6.180;2023-03-16T03:55:59;99562.66;;;9.33;100.00
46430;BME280;32131;53.454;-6.180;2023-03-16T03:58:27;99579.81;;;9.31;100.00
46430;BME280;32131;53.454;-6.180;2023-03-16T04:00:55;99579.78;;;9.28;100.00
46430;BME280;32131;53.454;-6.180;2023-03-16T04:03:23;99582.38;;;9.26;100.00
46430;BME280;32131;53.454;-6.180;2023-03-16T04:05:51;99567.78;;;9.24;100.00
46430;BME280;32131;53.454;-6.180;2023-03-16T04:08:19;99561.75;;;9.28;100.00
46430;BME280;32131;53.454;-6.180;2023-03-16T04:10:49;99563.53;;;9.40;100.00
46430;BME280;32131;53.454;-6.180;2023-03-16T04:13:17;99555.81;;;9.51;100.00
46430;BME280;32131;53.454;-6.180;2023-03-16T04:15:45;99548.94;;;9.56;100.00
46430;BME280;32131;53.454;-6.180;2023-03-16T04:18:13;99542.94;;;9.65;100.00
46430;BME280;32131;53.454;-6.180;2023-03-16T04:20:42;99545.50;;;9.68;100.00
46430;BME280;32131;53.454;-6.180;2023-03-16T04:23:10;99530.88;;;9.71;100.00
46430;BME280;32131;53.454;-6.180;2023-03-16T04:25:39;99536.91;;;9.73;100.00
46430;BME280;32131;53.454;-6.180;2023-03-16T04:28:09;99537.78;;;9.75;100.00
46430;BME280;32131;53.454;-6.180;2023-03-16T04:30:37;99537.75;;;9.79;100.00
46430;BME280;32131;53.454;-6.180;2023-03-16T04:33:05;99537.78;;;9.80;100.00
46430;BME280;32131;53.454;-6.180;2023-03-16T04:35:33;99530.03;;;9.82;100.00
46430;BME280;32131;53.454;-6.180;2023-03-16T04:38:02;99535.19;;;9.85;100.00
46430;BME280;32131;53.454;-6.180;2023-03-16T04:40:30;99532.63;;;9.85;100.00
46430;BME280;32131;53.454;-6.180;2023-03-16T04:42:58;99534.31;;;9.84;100.00
46430;BME280;32131;53.454;-6.180;2023-03-16T04:45:28;99524.88;;;9.85;100.00
46430;BME280;32131;53.454;-6.180;2023-03-16T04:47:56;99530.88;;;9.85;100.00
46430;BME280;32131;53.454;-6.180;2023-03-16T04:50:27;99521.44;;;9.87;100.00
46430;BME280;32131;53.454;-6.180;2023-03-16T04:52:57;99514.53;;;9.88;100.00
46430;BME280;32131;53.454;-6.180;2023-03-16T04:55:26;99516.28;;;9.92;100.00
46430;BME280;32131;53.454;-6.180;2023-03-16T04:57:54;99516.28;;;9.92;100.00
46430;BME280;32131;53.454;-6.180;2023-03-16T05:00:24;99519.72;;;9.94;100.00
46430;BME280;32131;53.454;-6.180;2023-03-16T05:02:55;99517.13;;;9.94;100.00
46430;BME280;32131;53.454;-6.180;2023-03-16T05:05:23;99517.13;;;9.96;100.00
46430;BME280;32131;53.454;-6.180;2023-03-16T05:07:51;99515.38;;;9.96;100.00
46430;BME280;32131;53.454;-6.180;2023-03-16T05:10:19;99513.69;;;9.97;100.00
46430;BME280;32131;53.454;-6.180;2023-03-16T05:12:47;99500.78;;;9.95;100.00
46430;BME280;32131;53.454;-6.180;2023-03-16T05:15:15;99511.97;;;9.88;100.00
46430;BME280;32131;53.454;-6.180;2023-03-16T05:17:44;99507.69;;;9.79;100.00
46430;BME280;32131;53.454;-6.180;2023-03-16T05:20:14;99505.13;;;9.73;100.00
46430;BME280;32131;53.454;-6.180;2023-03-16T05:22:43;99516.28;;;9.67;100.00
46430;BME280;32131;53.454;-6.180;2023-03-16T05:25:15;99514.56;;;9.63;100.00
46430;BME280;32131;53.454;-6.180;2023-03-16T05:27:44;99511.13;;;9.59;100.00
46430;BME280;32131;53.454;-6.180;2023-03-16T05:30:14;99505.97;;;9.55;100.00
46430;BME280;32131;53.454;-6.180;2023-03-16T05:32:43;99507.69;;;9.51;100.00
46430;BME280;32131;53.454;-6.180;2023-03-16T05:35:16;99501.69;;;9.48;100.00
46430;BME280;32131;53.454;-6.180;2023-03-16T05:37:44;99496.53;;;9.41;100.00
46430;BME280;32131;53.454;-6.180;2023-03-16T05:40:13;99501.69;;;9.40;100.00
46430;BME280;32131;53.454;-6.180;2023-03-16T05:42:53;99500.84;;;9.42;100.00
46430;BME280;32131;53.454;-6.180;2023-03-16T05:45:22;99501.69;;;9.41;100.00
46430;BME280;32131;53.454;-6.180;2023-03-16T05:47:50;99493.09;;;9.41;100.00
46430;BME280;32131;53.454;-6.180;2023-03-16T05:50:21;99480.22;;;9.39;100.00
46430;BME280;32131;53.454;-6.180;2023-03-16T05:52:49;99478.50;;;9.40;100.00
46430;BME280;32131;53.454;-6.180;2023-03-16T05:55:19;99480.22;;;9.39;100.00
46430;BME280;32131;53.454;-6.180;2023-03-16T05:57:47;99464.75;;;9.39;100.00
46430;BME280;32131;53.454;-6.180;2023-03-16T06:00:16;99468.19;;;9.44;100.00
46430;BME280;32131;53.454;-6.180;2023-03-16T06:02:46;99473.34;;;9.51;100.00
46430;BME280;32131;53.454;-6.180;2023-03-16T06:05:21;99483.66;;;9.62;100.00
46430;BME280;32131;53.454;-6.180;2023-03-16T06:07:50;99486.22;;;9.66;100.00
46430;BME280;32131;53.454;-6.180;2023-03-16T06:10:19;99486.22;;;9.72;100.00
46430;BME280;32131;53.454;-6.180;2023-03-16T06:12:48;99472.47;;;9.77;100.00
46430;BME280;32131;53.454;-6.180;2023-03-16T06:15:17;99469.88;;;9.80;100.00
46430;BME280;32131;53.454;-6.180;2023-03-16T06:17:46;99468.16;;;9.82;100.00
46430;BME280;32131;53.454;-6.180;2023-03-16T06:20:14;99468.16;;;9.86;100.00
46430;BME280;32131;53.454;-6.180;2023-03-16T06:22:46;99463.84;;;9.87;100.00
46430;BME280;32131;53.454;-6.180;2023-03-16T06:25:17;99437.19;;;9.88;100.00
46430;BME280;32131;53.454;-6.180;2023-03-16T06:27:45;99427.78;;;9.84;100.00
46430;BME280;32131;53.454;-6.180;2023-03-16T06:30:15;99422.59;;;9.82;100.00
46430;BME280;32131;53.454;-6.180;2023-03-16T06:32:46;99418.31;;;9.80;100.00
46430;BME280;32131;53.454;-6.180;2023-03-16T06:35:15;99405.44;;;9.78;100.00
46430;BME280;32131;53.454;-6.180;2023-03-16T06:37:45;99402.88;;;9.77;100.00
46430;BME280;32131;53.454;-6.180;2023-03-16T06:40:13;99401.16;;;9.66;100.00
46430;BME280;32131;53.454;-6.180;2023-03-16T06:42:42;99394.31;;;9.53;100.00
46430;BME280;32131;53.454;-6.180;2023-03-16T06:45:19;99398.63;;;9.48;100.00
46430;BME280;32131;53.454;-6.180;2023-03-16T06:47:48;99431.25;;;9.39;100.00
46430;BME280;32131;53.454;-6.180;2023-03-16T06:50:16;99433.88;;;9.32;100.00
46430;BME280;32131;53.454;-6.180;2023-03-16T06:52:46;99445.88;;;9.25;100.00
46430;BME280;32131;53.454;-6.180;2023-03-16T06:55:14;99455.28;;;9.20;100.00
46430;BME280;32131;53.454;-6.180;2023-03-16T06:57:42;99451.03;;;9.16;100.00
46430;BME280;32131;53.454;-6.180;2023-03-16T07:00:13;99452.72;;;9.13;100.00
46430;BME280;32131;53.454;-6.180;2023-03-16T07:02:41;99454.44;;;9.15;100.00
46430;BME280;32131;53.454;-6.180;2023-03-16T07:06:05;99455.31;;;9.13;100.00
46430;BME280;32131;53.454;-6.180;2023-03-16T07:08:49;99449.28;;;9.11;100.00
46430;BME280;32131;53.454;-6.180;2023-03-16T07:11:18;99455.31;;;9.13;100.00
46430;BME280;32131;53.454;-6.180;2023-03-16T07:13:47;99453.59;;;9.14;100.00
46430;BME280;32131;53.454;-6.180;2023-03-16T07:16:16;99451.03;;;9.16;100.00
46430;BME280;32131;53.454;-6.180;2023-03-16T07:18:44;99437.28;;;9.17;100.00
46430;BME280;32131;53.454;-6.180;2023-03-16T07:21:13;99439.84;;;9.24;100.00
46430;BME280;32131;53.454;-6.180;2023-03-16T07:23:41;99438.13;;;9.28;100.00
46430;BME280;32131;53.454;-6.180;2023-03-16T07:26:11;99444.16;;;9.30;100.00
46430;BME280;32131;53.454;-6.180;2023-03-16T07:28:40;99457.00;;;9.36;100.00
46430;BME280;32131;53.454;-6.180;2023-03-16T07:31:08;99453.59;;;9.37;100.00
46430;BME280;32131;53.454;-6.180;2023-03-16T07:33:36;99449.31;;;9.39;100.00
46430;BME280;32131;53.454;-6.180;2023-03-16T07:36:05;99444.13;;;9.41;100.00
46430;BME280;32131;53.454;-6.180;2023-03-16T07:38:47;99444.16;;;9.39;100.00
46430;BME280;32131;53.454;-6.180;2023-03-16T07:41:33;99447.56;;;9.38;100.00
46430;BME280;32131;53.454;-6.180;2023-03-16T07:44:01;99448.44;;;9.37;100.00
46430;BME280;32131;53.454;-6.180;2023-03-16T07:46:30;99458.75;;;9.34;100.00
46430;BME280;32131;53.454;-6.180;2023-03-16T07:48:58;99448.44;;;9.30;100.00
46430;BME280;32131;53.454;-6.180;2023-03-16T07:51:27;99447.59;;;9.23;100.00
46430;BME280;32131;53.454;-6.180;2023-03-16T07:53:55;99442.41;;;9.20;100.00
46430;BME280;32131;53.454;-6.180;2023-03-16T07:56:24;99442.44;;;9.23;100.00
46430;BME280;32131;53.454;-6.180;2023-03-16T07:58:58;99439.00;;;9.39;100.00
46430;BME280;32131;53.454;-6.180;2023-03-16T08:01:27;99446.72;;;9.55;100.00
46430;BME280;32131;53.454;-6.180;2023-03-16T08:03:56;99436.38;;;9.66;100.00
46430;BME280;32131;53.454;-6.180;2023-03-16T08:06:24;99426.06;;;9.78;100.00
46430;BME280;32131;53.454;-6.180;2023-03-16T08:08:53;99443.19;;;9.95;100.00
46430;BME280;32131;53.454;-6.180;2023-03-16T08:11:21;99450.88;;;10.12;100.00
46430;BME280;32131;53.454;-6.180;2023-03-16T08:13:52;99457.72;;;10.25;100.00
46430;BME280;32131;53.454;-6.180;2023-03-16T08:16:23;99450.81;;;10.33;100.00
46430;BME280;32131;53.454;-6.180;2023-03-16T08:18:54;99462.00;;;10.42;100.00
46430;BME280;32131;53.454;-6.180;2023-03-16T08:21:23;99466.25;;;10.46;100.00
46430;BME280;32131;53.454;-6.180;2023-03-16T08:23:51;99455.91;;;10.58;100.00
46430;BME280;32131;53.454;-6.180;2023-03-16T08:26:20;99460.97;;;10.74;100.00
46430;BME280;32131;53.454;-6.180;2023-03-16T08:28:50;99460.00;;;10.90;100.00
46430;BME280;32131;53.454;-6.180;2023-03-16T08:31:19;99457.38;;;10.99;100.00
46430;BME280;32131;53.454;-6.180;2023-03-16T08:33:50;99464.25;;;11.00;100.00
46430;BME280;32131;53.454;-6.180;2023-03-16T08:36:18;99458.22;;;11.01;100.00
46430;BME280;32131;53.454;-6.180;2023-03-16T08:38:47;99470.22;;;11.06;100.00
46430;BME280;32131;53.454;-6.180;2023-03-16T08:41:32;99472.81;;;11.06;100.00
46430;BME280;32131;53.454;-6.180;2023-03-16T08:44:01;99468.53;;;11.05;100.00
46430;BME280;32131;53.454;-6.180;2023-03-16T08:46:29;99475.38;;;11.10;100.00
46430;BME280;32131;53.454;-6.180;2023-03-16T08:48:59;99480.56;;;11.12;100.00
46430;BME280;32131;53.454;-6.180;2023-03-16T08:51:29;99478.75;;;11.19;100.00
46430;BME280;32131;53.454;-6.180;2023-03-16T08:53:58;99483.03;;;11.21;100.00
46430;BME280;32131;53.454;-6.180;2023-03-16T08:56:27;99496.03;;;11.10;100.00
46430;BME280;32131;53.454;-6.180;2023-03-16T08:58:58;99482.38;;;10.93;100.00
46430;BME280;32131;53.454;-6.180;2023-03-16T09:01:26;99483.31;;;10.81;100.00
46430;BME280;32131;53.454;-6.180;2023-03-16T09:04:04;99473.81;;;10.84;100.00
46430;BME280;32131;53.454;-6.180;2023-03-16T09:06:33;99474.59;;;10.97;100.00
46430;BME280;32131;53.454;-6.180;2023-03-16T09:09:01;99470.28;;;10.96;100.00
46430;BME280;32131;53.454;-6.180;2023-03-16T09:11:30;99471.16;;;10.98;100.00
46430;BME280;32131;53.454;-6.180;2023-03-16T09:13:59;99466.84;;;11.00;100.00
46430;BME280;32131;53.454;-6.180;2023-03-16T09:16:33;99465.09;;;11.01;100.00
46430;BME280;32131;53.454;-6.180;2023-03-16T09:19:04;99459.09;;;11.04;100.00
46430;BME280;32131;53.454;-6.180;2023-03-16T09:21:35;99453.00;;;11.09;100.00
46430;BME280;32131;53.454;-6.180;2023-03-16T09:24:06;99451.28;;;11.10;100.00
46430;BME280;32131;53.454;-6.180;2023-03-16T09:26:35;99453.03;;;11.06;100.00
46430;BME280;32131;53.454;-6.180;2023-03-16T09:29:05;99450.28;;;11.28;100.00
46430;BME280;32131;53.454;-6.180;2023-03-16T09:31:35;99447.53;;;11.46;100.00
46430;BME280;32131;53.454;-6.180;2023-03-16T09:34:05;99436.97;;;11.71;100.00
46430;BME280;32131;53.454;-6.180;2023-03-16T09:36:33;99445.41;;;11.92;100.00
46430;BME280;32131;53.454;-6.180;2023-03-16T09:39:01;99445.97;;;12.19;100.00
46430;BME280;32131;53.454;-6.180;2023-03-16T09:41:40;99455.16;;;12.43;100.00
46430;BME280;32131;53.454;-6.180;2023-03-16T09:44:20;99450.88;;;12.42;99.54
46430;BME280;32131;53.454;-6.180;2023-03-16T09:46:51;99453.41;;;12.47;99.04
46430;BME280;32131;53.454;-6.180;2023-03-16T09:49:27;99453.63;;;12.28;99.00
46430;BME280;32131;53.454;-6.180;2023-03-16T09:52:05;99456.38;;;12.14;99.62
46430;BME280;32131;53.454;-6.180;2023-03-16T09:54:40;99453.88;;;12.06;99.72
46430;BME280;32131;53.454;-6.180;2023-03-16T09:57:15;99453.81;;;12.13;99.97
46430;BME280;32131;53.454;-6.180;2023-03-16T09:59:49;99462.47;;;12.10;99.48
46430;BME280;32131;53.454;-6.180;2023-03-16T10:02:44;99461.69;;;12.02;100.00
46430;BME280;32131;53.454;-6.180;2023-03-16T10:05:19;99463.50;;;11.92;100.00
46430;BME280;32131;53.454;-6.180;2023-03-16T10:07:59;99461.78;;;11.89;100.00
46430;BME280;32131;53.454;-6.180;2023-03-16T10:10:42;99456.59;;;11.92;100.00
46430;BME280;32131;53.454;-6.180;2023-03-16T10:13:19;99463.44;;;12.00;100.00
46430;BME280;32131;53.454;-6.180;2023-03-16T10:15:56;99472.09;;;11.97;100.00
46430;BME280;32131;53.454;-6.180;2023-03-16T10:18:30;99465.94;;;12.07;100.00
46430;BME280;32131;53.454;-6.180;2023-03-16T10:21:04;99472.84;;;12.07;100.00
46430;BME280;32131;53.454;-6.180;2023-03-16T10:23:33;99466.91;;;11.95;100.00
46430;BME280;32131;53.454;-6.180;2023-03-16T10:26:13;99453.16;;;11.89;100.00
46430;BME280;32131;53.454;-6.180;2023-03-16T10:28:44;99461.88;;;11.80;100.00
46430;BME280;32131;53.454;-6.180;2023-03-16T10:31:16;99457.59;;;11.77;100.00
46430;BME280;32131;53.454;-6.180;2023-03-16T10:33:48;99457.44;;;11.91;100.00
46430;BME280;32131;53.454;-6.180;2023-03-16T10:36:24;99459.00;;;12.09;100.00
46430;BME280;32131;53.454;-6.180;2023-03-16T10:38:57;99454.50;;;12.29;100.00
46430;BME280;32131;53.454;-6.180;2023-03-16T10:41:28;99461.19;;;12.45;98.24
46430;BME280;32131;53.454;-6.180;2023-03-16T10:43:58;99456.66;;;12.61;97.86
46430;BME280;32131;53.454;-6.180;2023-03-16T10:46:36;99450.41;;;12.76;97.02
46430;BME280;32131;53.454;-6.180;2023-03-16T10:49:19;99443.34;;;12.87;95.02
46430;BME280;32131;53.454;-6.180;2023-03-16T10:51:50;99444.09;;;12.94;94.33
46430;BME280;32131;53.454;-6.180;2023-03-16T10:54:26;99443.25;;;12.94;94.03
46430;BME280;32131;53.454;-6.180;2023-03-16T10:56:57;99450.06;;;13.01;93.50
46430;BME280;32131;53.454;-6.180;2023-03-16T10:59:29;99459.44;;;13.08;93.34
46430;BME280;32131;53.454;-6.180;2023-03-16T11:02:13;99452.41;;;13.16;92.82
46430;BME280;32131;53.454;-6.180;2023-03-16T11:04:48;99460.03;;;13.26;91.70
46430;BME280;32131;53.454;-6.180;2023-03-16T11:07:20;99454.91;;;13.23;91.47
46430;BME280;32131;53.454;-6.180;2023-03-16T11:09:53;99453.03;;;13.31;91.62
46430;BME280;32131;53.454;-6.180;2023-03-16T11:12:25;99445.25;;;13.32;89.94
46430;BME280;32131;53.454;-6.180;2023-03-16T11:15:00;99447.00;;;13.30;90.45
46430;BME280;32131;53.454;-6.180;2023-03-16T11:17:36;99441.84;;;13.29;88.42
46430;BME280;32131;53.454;-6.180;2023-03-16T11:20:14;99439.59;;;13.09;89.04
46430;BME280;32131;53.454;-6.180;2023-03-16T11:22:47;99436.09;;;13.11;89.74
46430;BME280;32131;53.454;-6.180;2023-03-16T11:25:20;99442.63;;;13.34;88.85
46430;BME280;32131;53.454;-6.180;2023-03-16T11:27:57;99449.41;;;13.44;88.64
46430;BME280;32131;53.454;-6.180;2023-03-16T11:30:35;99439.53;;;13.65;87.45
46430;BME280;32131;53.454;-6.180;2023-03-16T11:33:15;99433.88;;;13.90;86.15
46430;BME280;32131;53.454;-6.180;2023-03-16T11:35:47;99437.84;;;14.09;84.77
46430;BME280;32131;53.454;-6.180;2023-03-16T11:38:32;99445.41;;;14.20;84.03
46430;BME280;32131;53.454;-6.180;2023-03-16T11:41:16;99437.53;;;14.26;82.55
46430;BME280;32131;53.454;-6.180;2023-03-16T11:43:51;99456.34;;;14.36;81.96
46430;BME280;32131;53.454;-6.180;2023-03-16T11:46:26;99444.50;;;14.67;80.37
46430;BME280;32131;53.454;-6.180;2023-03-16T11:49:17;99445.06;;;14.80;79.32
46430;BME280;32131;53.454;-6.180;2023-03-16T11:51:56;99439.94;;;14.76;79.18
46430;BME280;32131;53.454;-6.180;2023-03-16T11:54:47;99439.63;;;14.90;79.21
46430;BME280;32131;53.454;-6.180;2023-03-16T11:57:27;99441.03;;;15.04;77.27
46430;BME280;32131;53.454;-6.180;2023-03-16T12:00:10;99441.59;;;14.81;76.63
46430;BME280;32131;53.454;-6.180;2023-03-16T12:02:53;99435.00;;;14.64;77.37
46430;BME280;32131;53.454;-6.180;2023-03-16T12:05:47;99441.69;;;14.74;78.54
46430;BME280;32131;53.454;-6.180;2023-03-16T12:08:37;99435.63;;;15.13;77.34
46430;BME280;32131;53.454;-6.180;2023-03-16T12:11:19;99422.66;;;15.48;76.18
46430;BME280;32131;53.454;-6.180;2023-03-16T12:13:59;99434.91;;;16.09;74.90
46430;BME280;32131;53.454;-6.180;2023-03-16T12:16:32;99429.69;;;16.10;72.52
46430;BME280;32131;53.454;-6.180;2023-03-16T12:19:19;99434.78;;;16.15;71.51
46430;BME280;32131;53.454;-6.180;2023-03-16T12:22:00;99433.94;;;16.13;71.77
46430;BME280;32131;53.454;-6.180;2023-03-16T12:24:35;99430.47;;;16.14;72.31
46430;BME280;32131;53.454;-6.180;2023-03-16T12:27:11;99425.66;;;16.30;70.34
46430;BME280;32131;53.454;-6.180;2023-03-16T12:29:49;99423.97;;;16.27;69.37
46430;BME280;32131;53.454;-6.180;2023-03-16T12:32:29;99417.44;;;16.44;68.86
46430;BME280;32131;53.454;-6.180;2023-03-16T12:35:07;99425.44;;;16.66;68.88
46430;BME280;32131;53.454;-6.180;2023-03-16T12:37:48;99419.41;;;16.65;68.41
46430;BME280;32131;53.454;-6.180;2023-03-16T12:40:30;99427.84;;;16.44;69.17
46430;BME280;32131;53.454;-6.180;2023-03-16T12:43:30;99422.25;;;16.28;69.35
46430;BME280;32131;53.454;-6.180;2023-03-16T12:46:06;99415.50;;;16.21;69.20
46430;BME280;32131;53.454;-6.180;2023-03-16T12:48:39;99424.31;;;16.16;69.26
46430;BME280;32131;53.454;-6.180;2023-03-16T12:51:07;99423.28;;;16.22;68.50
46430;BME280;32131;53.454;-6.180;2023-03-16T12:53:42;99427.84;;;16.14;68.71
46430;BME280;32131;53.454;-6.180;2023-03-16T12:56:12;99436.41;;;15.86;69.78
46430;BME280;32131;53.454;-6.180;2023-03-16T12:58:46;99443.66;;;15.73;70.19
46430;BME280;32131;53.454;-6.180;2023-03-16T13:01:16;99442.47;;;15.52;70.34
46430;BME280;32131;53.454;-6.180;2023-03-16T13:03:49;99444.97;;;15.56;71.19
46430;BME280;32131;53.454;-6.180;2023-03-16T13:06:31;99431.91;;;15.58;71.47
46430;BME280;32131;53.454;-6.180;2023-03-16T13:09:04;99425.41;;;15.75;71.23
46430;BME280;32131;53.454;-6.180;2023-03-16T13:11:42;99431.31;;;15.81;70.84
46430;BME280;32131;53.454;-6.180;2023-03-16T13:14:32;99432.19;;;15.82;71.03